Time;durP1;ratioP1;P1;durP2;ratioP2;P2;SDS_P1;SDS_P2;PMS_P1;PMS_P2;Temp;Humidity;BMP_temperature;BMP_pressure;BME280_temperature;BME280_humidity;BME280_pressure;Samples;Min_cycle;Max_cycle;Signal;HPM_P1;HPM_P2
2021/09/06 00:00:52;;;;;;;5.00;3.10;;;;;;;;;;10321226;28;20072;-62
2021/09/06 00:05:51;;;;;;;6.22;3.30;;;;;;;;;;10320756;28;20083;-65
2021/09/06 00:11:00;;;;;;;6.93;3.22;;;;;;;;;;10320302;28;20064;-65
2021/09/06 00:15:58;;;;;;;5.60;3.58;;;;;;;;;;10320633;28;20405;-65
2021/09/06 00:20:58;;;;;;;6.07;3.72;;;;;;;;;;10320820;28;20517;-65
2021/09/06 00:25:57;;;;;;;4.65;3.15;;;;;;;;;;10320151;28;20500;-64
2021/09/06 00:30:56;;;;;;;6.20;3.10;;;;;;;;;;10320244;28;20505;-64
2021/09/06 00:35:55;;;;;;;3.33;2.60;;;;;;;;;;10317253;28;20048;-65
2021/09/06 00:40:53;;;;;;;3.15;2.53;;;;;;;;;;10318411;28;20064;-65
2021/09/06 00:45:53;;;;;;;4.93;3.42;;;;;;;;;;10317903;28;20056;-65
2021/09/06 00:50:52;;;;;;;8.45;3.10;;;;;;;;;;10317654;28;20056;-65
2021/09/06 00:55:51;;;;;;;5.05;3.10;;;;;;;;;;10318705;28;20041;-67
2021/09/06 01:00:49;;;;;;;6.78;3.13;;;;;;;;;;10316846;28;20521;-65
2021/09/06 01:05:50;;;;;;;3.95;3.00;;;;;;;;;;10318019;28;20045;-65
2021/09/06 01:11:15;;;;;;;10.85;3.67;;;;;;;;;;10316790;28;20181;-65
2021/09/06 01:16:36;;;;;;;6.05;3.05;;;;;;;;;;10318210;28;20052;-65
2021/09/06 01:21:36;;;;;;;4.07;2.90;;;;;;;;;;10316739;28;20048;-65
2021/09/06 01:26:56;;;;;;;5.13;3.15;;;;;;;;;;10317552;28;20079;-65
2021/09/06 01:31:56;;;;;;;5.55;3.42;;;;;;;;;;10315980;28;20087;-62
2021/09/06 01:36:55;;;;;;;5.07;2.78;;;;;;;;;;10316674;28;20056;-65
2021/09/06 01:41:53;;;;;;;4.55;2.78;;;;;;;;;;10315688;28;20079;-65
2021/09/06 01:46:53;;;;;;;4.45;2.90;;;;;;;;;;10316180;28;20045;-64
2021/09/06 01:51:53;;;;;;;8.70;2.95;;;;;;;;;;10316700;28;20072;-64
2021/09/06 01:56:52;;;;;;;5.18;3.58;;;;;;;;;;10315589;28;20493;-64
2021/09/06 02:01:50;;;;;;;5.57;3.20;;;;;;;;;;10315832;28;20084;-64
2021/09/06 02:06:51;;;;;;;4.93;2.75;;;;;;;;;;10315595;28;20041;-64
2021/09/06 02:11:49;;;;;;;3.50;2.42;;;;;;;;;;10314774;28;20055;-64
2021/09/06 02:16:48;;;;;;;4.07;2.70;;;;;;;;;;10318287;28;20037;-64
2021/09/06 02:22:03;;;;;;;3.70;3.00;;;;;;;;;;10314590;28;20429;-64
2021/09/06 02:27:11;;;;;;;3.88;2.95;;;;;;;;;;10315260;28;20052;-64
2021/09/06 02:32:12;;;;;;;4.13;2.80;;;;;;;;;;10313007;28;20459;-64
2021/09/06 02:37:34;;;;;;;3.30;2.45;;;;;;;;;;10319583;28;20103;-64
2021/09/06 02:42:34;;;;;;;3.95;2.75;;;;;;;;;;10314624;28;20045;-64
2021/09/06 02:47:33;;;;;;;4.95;2.95;;;;;;;;;;10316137;28;20048;-64
2021/09/06 02:52:31;;;;;;;10.73;2.63;;;;;;;;;;10315704;28;20521;-64
2021/09/06 02:57:32;;;;;;;9.20;3.50;;;;;;;;;;10316264;28;20056;-64
2021/09/06 03:02:31;;;;;;;3.15;2.78;;;;;;;;;;10321823;28;20053;-64
2021/09/06 03:07:30;;;;;;;3.47;2.90;;;;;;;;;;10323669;28;20079;-64
2021/09/06 03:12:29;;;;;;;6.53;2.60;;;;;;;;;;10321983;28;20089;-64
2021/09/06 03:17:29;;;;;;;5.95;3.17;;;;;;;;;;10323390;28;20076;-64
2021/09/06 03:22:30;;;;;;;4.85;2.95;;;;;;;;;;10321600;28;20053;-65
2021/09/06 03:27:29;;;;;;;4.60;2.80;;;;;;;;;;10323030;28;20486;-65
2021/09/06 03:32:30;;;;;;;6.68;3.08;;;;;;;;;;10321229;28;20084;-65
2021/09/06 03:37:29;;;;;;;6.00;2.92;;;;;;;;;;10322885;28;20512;-65
2021/09/06 03:42:35;;;;;;;8.50;3.13;;;;;;;;;;10320501;28;20049;-65
2021/09/06 03:47:35;;;;;;;8.15;3.28;;;;;;;;;;10321041;28;20055;-64
2021/09/06 03:52:34;;;;;;;4.82;2.90;;;;;;;;;;10320252;28;20044;-64
2021/09/06 03:57:33;;;;;;;5.22;2.97;;;;;;;;;;10320357;28;20040;-65
2021/09/06 04:02:32;;;;;;;6.45;2.78;;;;;;;;;;10319564;28;20421;-65
2021/09/06 04:07:32;;;;;;;7.10;2.95;;;;;;;;;;10320124;28;20049;-65
2021/09/06 04:12:32;;;;;;;5.28;3.35;;;;;;;;;;10319460;28;20080;-65
2021/09/06 04:17:31;;;;;;;4.68;2.78;;;;;;;;;;10319898;28;20049;-65
2021/09/06 04:22:30;;;;;;;8.77;3.17;;;;;;;;;;10319257;28;20049;-63
2021/09/06 04:27:30;;;;;;;3.70;2.80;;;;;;;;;;10320292;28;20036;-64
2021/09/06 04:32:29;;;;;;;6.07;2.75;;;;;;;;;;10319026;28;20053;-64
2021/09/06 04:37:28;;;;;;;6.38;3.30;;;;;;;;;;10319077;28;20056;-64
2021/09/06 04:42:27;;;;;;;8.43;2.78;;;;;;;;;;10318338;28;20379;-65
2021/09/06 04:47:30;;;;;;;6.65;3.45;;;;;;;;;;10318708;28;20450;-65
2021/09/06 04:52:30;;;;;;;5.07;3.20;;;;;;;;;;10319327;28;20481;-65
2021/09/06 04:57:31;;;;;;;5.70;3.80;;;;;;;;;;10318533;28;20051;-65
2021/09/06 05:02:31;;;;;;;7.07;3.10;;;;;;;;;;10317286;28;20060;-65
2021/09/06 05:07:33;;;;;;;7.75;3.20;;;;;;;;;;10317831;28;20403;-65
2021/09/06 05:12:33;;;;;;;8.90;3.53;;;;;;;;;;10317483;28;20304;-66
2021/09/06 05:17:34;;;;;;;9.35;3.55;;;;;;;;;;10317572;28;20059;-65
2021/09/06 05:22:32;;;;;;;6.95;3.47;;;;;;;;;;10316362;28;20044;-65
2021/09/06 05:27:31;;;;;;;4.07;3.05;;;;;;;;;;10317477;28;20049;-66
2021/09/06 05:32:30;;;;;;;6.38;3.17;;;;;;;;;;10316568;28;20079;-65
2021/09/06 05:37:30;;;;;;;5.45;3.08;;;;;;;;;;10277236;28;20071;-65
2021/09/06 05:42:32;;;;;;;4.10;2.78;;;;;;;;;;10275932;28;20052;-63
2021/09/06 05:47:30;;;;;;;6.22;3.25;;;;;;;;;;10277061;28;20067;-63
2021/09/06 05:52:29;;;;;;;6.50;3.15;;;;;;;;;;10278017;28;20049;-63
2021/09/06 05:57:29;;;;;;;3.90;2.55;;;;;;;;;;10317941;28;20068;-64
2021/09/06 06:02:27;;;;;;;6.20;3.72;;;;;;;;;;10316089;28;20056;-63
2021/09/06 06:07:26;;;;;;;11.52;3.05;;;;;;;;;;10317047;28;20049;-64
2021/09/06 06:12:30;;;;;;;7.25;2.75;;;;;;;;;;10315558;28;20469;-63
2021/09/06 06:17:29;;;;;;;8.98;3.05;;;;;;;;;;10311020;28;20096;-64
2021/09/06 06:22:27;;;;;;;6.68;2.63;;;;;;;;;;10312123;28;20055;-63
2021/09/06 06:27:43;;;;;;;7.00;2.77;;;;;;;;;;10312153;28;20486;-64
2021/09/06 06:32:44;;;;;;;4.75;3.03;;;;;;;;;;10314203;28;20086;-63
2021/09/06 06:37:59;;;;;;;6.63;2.78;;;;;;;;;;10315051;28;20094;-64
2021/09/06 06:43:05;;;;;;;4.82;2.85;;;;;;;;;;10315074;28;20052;-64
2021/09/06 06:48:04;;;;;;;8.40;4.13;;;;;;;;;;10315181;28;20041;-65
2021/09/06 06:53:03;;;;;;;10.02;5.50;;;;;;;;;;10315404;28;20490;-65
2021/09/06 06:58:01;;;;;;;9.18;6.05;;;;;;;;;;10315682;28;20068;-65
2021/09/06 07:03:05;;;;;;;4.25;2.95;;;;;;;;;;10314664;28;20075;-64
2021/09/06 07:08:04;;;;;;;7.35;3.20;;;;;;;;;;10314929;28;20049;-65
2021/09/06 07:13:03;;;;;;;5.60;3.17;;;;;;;;;;10314696;28;20126;-64
2021/09/06 07:18:04;;;;;;;9.07;4.05;;;;;;;;;;10311481;28;20048;-65
2021/09/06 07:23:03;;;;;;;4.90;2.75;;;;;;;;;;10300287;28;20044;-63
2021/09/06 07:28:05;;;;;;;3.80;3.10;;;;;;;;;;10310971;28;20099;-64
2021/09/06 07:33:06;;;;;;;9.77;5.93;;;;;;;;;;10314423;28;20055;-66
2021/09/06 07:38:06;;;;;;;4.93;2.95;;;;;;;;;;10314029;28;20052;-65
2021/09/06 07:43:05;;;;;;;3.92;2.63;;;;;;;;;;10315313;28;20055;-65
2021/09/06 07:48:05;;;;;;;8.95;5.70;;;;;;;;;;10322999;28;20433;-65
2021/09/06 07:53:09;;;;;;;5.72;3.58;;;;;;;;;;10321261;28;20056;-64
2021/09/06 07:58:08;;;;;;;15.32;10.48;;;;;;;;;;10321038;28;20044;-64
2021/09/06 08:03:08;;;;;;;7.78;5.15;;;;;;;;;;10320371;28;20063;-64
2021/09/06 08:08:08;;;;;;;7.43;4.65;;;;;;;;;;10309897;28;20501;-64
2021/09/06 08:13:08;;;;;;;8.30;3.22;;;;;;;;;;10311667;28;20076;-64
2021/09/06 08:18:10;;;;;;;10.35;4.38;;;;;;;;;;10320048;28;20055;-64
2021/09/06 08:23:17;;;;;;;11.38;4.32;;;;;;;;;;10319390;28;20052;-64
2021/09/06 08:28:18;;;;;;;6.10;3.10;;;;;;;;;;10320382;28;20060;-64
2021/09/06 08:33:18;;;;;;;7.70;2.92;;;;;;;;;;10320987;28;20088;-63
2021/09/06 08:38:18;;;;;;;11.50;4.18;;;;;;;;;;10319382;28;20059;-64
2021/09/06 08:43:20;;;;;;;8.83;3.33;;;;;;;;;;10319380;28;20052;-64
2021/09/06 08:48:21;;;;;;;8.38;5.60;;;;;;;;;;10318397;28;20047;-63
2021/09/06 08:53:20;;;;;;;6.75;3.13;;;;;;;;;;10319125;28;20052;-64
2021/09/06 08:58:18;;;;;;;8.80;4.03;;;;;;;;;;10317761;28;20045;-64
2021/09/06 09:03:17;;;;;;;15.32;4.45;;;;;;;;;;10318168;28;20052;-64
2021/09/06 09:08:26;;;;;;;5.40;3.30;;;;;;;;;;10318214;28;20059;-65
2021/09/06 09:13:46;;;;;;;6.53;3.38;;;;;;;;;;10318173;28;20472;-64
2021/09/06 09:19:11;;;;;;;4.50;3.50;;;;;;;;;;10326391;28;20059;-63
2021/09/06 09:24:40;;;;;;;3.25;2.90;;;;;;;;;;10319068;28;20055;-64
2021/09/06 09:29:57;;;;;;;4.45;2.85;;;;;;;;;;10316557;28;20053;-63
2021/09/06 09:35:08;;;;;;;15.27;5.43;;;;;;;;;;10317309;28;20510;-64
2021/09/06 09:40:13;;;;;;;18.08;4.78;;;;;;;;;;10318395;28;20048;-63
2021/09/06 09:45:22;;;;;;;5.43;3.55;;;;;;;;;;10313494;28;20084;-64
2021/09/06 09:50:56;;;;;;;8.32;5.45;;;;;;;;;;10342288;28;20092;-64
2021/09/06 09:55:56;;;;;;;9.18;3.33;;;;;;;;;;10313189;28;20072;-64
2021/09/06 10:00:56;;;;;;;9.45;3.42;;;;;;;;;;10313102;28;20091;-64
2021/09/06 10:05:55;;;;;;;5.65;2.88;;;;;;;;;;10316472;28;20079;-64
2021/09/06 10:10:54;;;;;;;14.95;11.82;;;;;;;;;;10317802;28;20049;-64
2021/09/06 10:16:00;;;;;;;10.40;7.28;;;;;;;;;;10316662;28;20079;-64
2021/09/06 10:21:10;;;;;;;15.00;11.27;;;;;;;;;;10316496;28;20056;-62
2021/09/06 10:26:10;;;;;;;6.43;3.35;;;;;;;;;;10316489;28;20048;-64
2021/09/06 10:31:19;;;;;;;5.30;3.50;;;;;;;;;;10316263;28;20048;-63
2021/09/06 10:36:20;;;;;;;11.75;6.72;;;;;;;;;;10315969;28;20461;-64
2021/09/06 10:41:19;;;;;;;13.48;12.07;;;;;;;;;;10316332;28;20515;-64
2021/09/06 10:46:23;;;;;;;10.98;5.63;;;;;;;;;;10300350;28;20077;-64
2021/09/06 10:51:25;;;;;;;5.28;4.40;;;;;;;;;;10276199;28;20056;-64
2021/09/06 10:56:24;;;;;;;9.88;5.38;;;;;;;;;;10285167;28;20083;-63
2021/09/06 11:01:24;;;;;;;7.28;3.33;;;;;;;;;;10311510;28;20074;-64
2021/09/06 11:06:25;;;;;;;7.10;4.45;;;;;;;;;;10315585;28;20044;-64
2021/09/06 11:11:28;;;;;;;6.05;3.42;;;;;;;;;;10315649;28;20044;-64
2021/09/06 11:16:37;;;;;;;8.32;3.05;;;;;;;;;;10315472;28;20099;-65
2021/09/06 11:21:36;;;;;;;4.03;3.17;;;;;;;;;;10321845;28;20080;-64
2021/09/06 11:26:35;;;;;;;6.30;3.85;;;;;;;;;;10291773;28;20075;-64
2021/09/06 11:31:37;;;;;;;5.47;3.38;;;;;;;;;;10282580;28;20041;-64
2021/09/06 11:36:36;;;;;;;7.00;4.78;;;;;;;;;;10281773;28;20080;-64
2021/09/06 11:41:36;;;;;;;11.93;6.95;;;;;;;;;;10281776;28;20045;-63
2021/09/06 11:46:35;;;;;;;9.95;6.13;;;;;;;;;;10301582;28;20072;-64
2021/09/06 11:51:35;;;;;;;11.45;3.88;;;;;;;;;;10322584;28;20044;-64
2021/09/06 11:56:33;;;;;;;6.47;5.30;;;;;;;;;;10321917;28;20072;-64
2021/09/06 12:01:32;;;;;;;6.65;5.88;;;;;;;;;;10321773;28;20494;-65
2021/09/06 12:06:30;;;;;;;7.20;3.35;;;;;;;;;;10321781;28;20070;-64
2021/09/06 12:11:37;;;;;;;6.78;4.85;;;;;;;;;;10321618;28;20546;-64
2021/09/06 12:16:36;;;;;;;5.95;3.88;;;;;;;;;;10321812;28;20079;-64
2021/09/06 12:21:42;;;;;;;11.43;8.27;;;;;;;;;;10321142;28;20048;-64
2021/09/06 12:26:42;;;;;;;5.88;3.45;;;;;;;;;;10320852;28;20474;-64
2021/09/06 12:31:42;;;;;;;4.30;3.90;;;;;;;;;;10320693;28;20532;-64
2021/09/06 12:36:41;;;;;;;9.25;5.95;;;;;;;;;;10320894;28;20481;-64
2021/09/06 12:41:39;;;;;;;8.20;5.10;;;;;;;;;;10320767;28;20051;-64
2021/09/06 12:46:39;;;;;;;8.50;3.92;;;;;;;;;;10321852;28;20155;-64
2021/09/06 12:51:37;;;;;;;18.98;11.13;;;;;;;;;;10320615;28;20044;-65
2021/09/06 12:56:36;;;;;;;9.38;6.80;;;;;;;;;;10281305;28;20073;-64
2021/09/06 13:01:34;;;;;;;13.00;9.57;;;;;;;;;;10278819;28;20083;-64
2021/09/06 13:06:34;;;;;;;21.33;14.38;;;;;;;;;;10278860;28;20045;-65
2021/09/06 13:11:32;;;;;;;13.27;6.75;;;;;;;;;;10278555;28;20060;-64
2021/09/06 13:16:31;;;;;;;8.52;5.60;;;;;;;;;;10278501;28;20088;-64
2021/09/06 13:21:29;;;;;;;8.18;4.28;;;;;;;;;;10278240;28;20076;-64
2021/09/06 13:26:29;;;;;;;5.30;3.65;;;;;;;;;;10276630;28;20065;-63
2021/09/06 13:31:27;;;;;;;7.00;3.22;;;;;;;;;;10277822;28;20040;-64
2021/09/06 13:36:26;;;;;;;9.18;4.72;;;;;;;;;;10277667;28;20068;-64
2021/09/06 13:41:24;;;;;;;14.30;5.60;;;;;;;;;;10277615;28;20084;-63
2021/09/06 13:46:24;;;;;;;9.07;4.40;;;;;;;;;;10277195;28;20407;-64
2021/09/06 13:51:22;;;;;;;12.25;3.92;;;;;;;;;;10277221;28;20422;-64
2021/09/06 13:56:21;;;;;;;11.95;7.63;;;;;;;;;;10276734;28;20459;-63
2021/09/06 14:01:19;;;;;;;10.88;8.68;;;;;;;;;;10276327;28;20080;-64
2021/09/06 14:06:19;;;;;;;5.72;3.58;;;;;;;;;;10276113;28;20052;-64
2021/09/06 14:11:17;;;;;;;9.43;4.72;;;;;;;;;;10275964;28;20048;-63
2021/09/06 14:16:15;;;;;;;8.77;4.25;;;;;;;;;;10275996;28;20510;-63
2021/09/06 14:21:14;;;;;;;11.02;3.65;;;;;;;;;;10276659;28;20056;-63
2021/09/06 14:26:14;;;;;;;6.55;4.25;;;;;;;;;;10276242;28;20040;-64
2021/09/06 14:31:12;;;;;;;13.73;5.00;;;;;;;;;;10275436;28;20045;-64
2021/09/06 14:36:11;;;;;;;6.93;4.50;;;;;;;;;;10275905;28;20080;-64
2021/09/06 14:41:09;;;;;;;3.83;3.13;;;;;;;;;;10273909;28;20049;-64
2021/09/06 14:46:09;;;;;;;4.75;3.80;;;;;;;;;;10275186;28;20055;-64
2021/09/06 14:51:08;;;;;;;7.70;3.22;;;;;;;;;;10275346;28;20045;-64
2021/09/06 14:56:06;;;;;;;7.53;4.18;;;;;;;;;;10282834;28;20072;-63
2021/09/06 15:01:05;;;;;;;4.10;3.05;;;;;;;;;;10283601;28;20076;-64
2021/09/06 15:06:19;;;;;;;6.07;3.75;;;;;;;;;;10283425;28;20049;-64
2021/09/06 15:11:19;;;;;;;12.13;3.47;;;;;;;;;;10283357;28;20056;-64
2021/09/06 15:16:18;;;;;;;5.60;3.78;;;;;;;;;;10282841;28;20073;-64
2021/09/06 15:21:16;;;;;;;9.13;3.40;;;;;;;;;;10283401;28;20513;-65
2021/09/06 15:26:16;;;;;;;8.38;3.75;;;;;;;;;;10282977;28;20056;-65
2021/09/06 15:31:26;;;;;;;6.13;3.92;;;;;;;;;;10282369;28;20068;-64
2021/09/06 15:36:25;;;;;;;6.82;3.33;;;;;;;;;;10283499;28;20079;-63
2021/09/06 15:41:25;;;;;;;6.70;3.70;;;;;;;;;;10283663;28;20080;-65
2021/09/06 15:46:23;;;;;;;5.72;4.18;;;;;;;;;;10281661;28;20041;-64
2021/09/06 15:51:22;;;;;;;8.43;4.00;;;;;;;;;;10281985;28;20494;-64
2021/09/06 15:56:20;;;;;;;4.78;3.63;;;;;;;;;;10281314;28;20104;-65
2021/09/06 16:01:20;;;;;;;5.82;4.00;;;;;;;;;;10280549;28;20061;-64
2021/09/06 16:06:19;;;;;;;5.43;3.88;;;;;;;;;;10281461;28;20048;-64
2021/09/06 16:11:17;;;;;;;6.57;4.03;;;;;;;;;;10280885;28;20049;-64
2021/09/06 16:16:15;;;;;;;8.85;4.88;;;;;;;;;;10280164;28;20084;-65
2021/09/06 16:21:15;;;;;;;8.85;5.68;;;;;;;;;;10283443;28;20080;-63
2021/09/06 16:26:14;;;;;;;6.50;4.25;;;;;;;;;;10295175;28;20068;-64
2021/09/06 16:31:12;;;;;;;7.60;4.90;;;;;;;;;;10297720;28;20076;-64
2021/09/06 16:36:11;;;;;;;10.43;6.40;;;;;;;;;;10278912;28;20118;-62
2021/09/06 16:41:11;;;;;;;9.85;7.10;;;;;;;;;;10278915;28;20069;-64
2021/09/06 16:46:09;;;;;;;5.72;4.07;;;;;;;;;;10300723;28;20072;-63
2021/09/06 16:51:08;;;;;;;4.78;3.83;;;;;;;;;;10301198;28;20077;-64
2021/09/06 16:56:06;;;;;;;8.27;4.55;;;;;;;;;;10290359;28;20083;-63
2021/09/06 17:01:06;;;;;;;6.75;4.05;;;;;;;;;;10276580;28;20073;-66
2021/09/06 17:06:05;;;;;;;6.20;3.83;;;;;;;;;;10295243;28;20033;-65
2021/09/06 17:11:03;;;;;;;12.98;3.78;;;;;;;;;;10286375;28;20068;-63
2021/09/06 17:16:02;;;;;;;11.30;4.25;;;;;;;;;;10273779;28;20478;-63
2021/09/06 17:21:02;;;;;;;22.77;6.85;;;;;;;;;;10287079;28;20069;-64
2021/09/06 17:26:01;;;;;;;12.82;8.25;;;;;;;;;;10297940;28;20080;-64
2021/09/06 17:30:59;;;;;;;12.70;5.57;;;;;;;;;;10304844;28;20114;-64
2021/09/06 17:35:57;;;;;;;10.85;5.35;;;;;;;;;;10318047;28;20087;-64
2021/09/06 17:40:57;;;;;;;12.48;4.03;;;;;;;;;;10297729;28;20068;-64
2021/09/06 17:45:55;;;;;;;10.98;4.22;;;;;;;;;;10277091;28;20079;-65
2021/09/06 17:50:54;;;;;;;14.50;4.15;;;;;;;;;;10280963;28;20048;-65
2021/09/06 17:55:52;;;;;;;10.90;3.38;;;;;;;;;;10304860;28;20076;-65
2021/09/06 18:00:53;;;;;;;5.68;4.20;;;;;;;;;;10289200;28;20088;-65
2021/09/06 18:05:54;;;;;;;7.75;4.20;;;;;;;;;;10276265;28;20068;-64
2021/09/06 18:10:55;;;;;;;9.77;4.30;;;;;;;;;;10276990;28;20048;-65
2021/09/06 18:15:54;;;;;;;13.23;4.68;;;;;;;;;;10276620;28;20048;-64
2021/09/06 18:20:59;;;;;;;6.95;3.45;;;;;;;;;;10275952;28;20045;-63
2021/09/06 18:25:57;;;;;;;7.25;4.22;;;;;;;;;;10275831;28;20045;-64
2021/09/06 18:30:57;;;;;;;10.50;4.75;;;;;;;;;;10275705;28;20049;-65
2021/09/06 18:35:56;;;;;;;10.38;5.15;;;;;;;;;;10275940;28;20087;-64
2021/09/06 18:40:55;;;;;;;7.68;4.18;;;;;;;;;;10276010;28;20072;-63
2021/09/06 18:45:53;;;;;;;8.73;4.68;;;;;;;;;;10282961;28;20045;-64
2021/09/06 18:50:55;;;;;;;10.13;3.95;;;;;;;;;;10304730;28;20410;-65
2021/09/06 18:55:54;;;;;;;8.43;4.30;;;;;;;;;;10316155;28;20084;-64
2021/09/06 19:00:54;;;;;;;10.30;3.92;;;;;;;;;;10316553;28;20083;-65
2021/09/06 19:05:55;;;;;;;11.07;4.50;;;;;;;;;;10316030;28;20040;-64
2021/09/06 19:10:54;;;;;;;15.40;4.68;;;;;;;;;;10315735;28;20052;-65
2021/09/06 19:15:52;;;;;;;14.20;4.80;;;;;;;;;;10315425;28;20490;-65
2021/09/06 19:20:52;;;;;;;8.65;4.13;;;;;;;;;;10315382;28;20429;-64
2021/09/06 19:25:52;;;;;;;9.20;3.67;;;;;;;;;;10315342;28;20047;-64
2021/09/06 19:30:51;;;;;;;11.07;3.83;;;;;;;;;;10315535;28;20386;-63
2021/09/06 19:35:50;;;;;;;11.70;3.50;;;;;;;;;;10315226;28;20429;-65
2021/09/06 19:40:49;;;;;;;7.03;2.85;;;;;;;;;;10318551;28;20061;-65
2021/09/06 19:45:51;;;;;;;8.05;3.63;;;;;;;;;;10323001;28;20040;-64
2021/09/06 19:50:50;;;;;;;9.90;3.25;;;;;;;;;;10322233;28;20063;-63
2021/09/06 19:55:50;;;;;;;6.22;2.60;;;;;;;;;;10322110;28;20516;-63
2021/09/06 20:00:49;;;;;;;4.63;2.47;;;;;;;;;;10298006;28;20053;-64
2021/09/06 20:05:50;;;;;;;6.80;3.15;;;;;;;;;;10281374;28;20086;-63
2021/09/06 20:10:49;;;;;;;8.20;2.95;;;;;;;;;;10300498;28;20057;-62
2021/09/06 20:15:48;;;;;;;5.13;2.95;;;;;;;;;;10280315;28;20065;-63
2021/09/06 20:20:46;;;;;;;6.07;3.22;;;;;;;;;;10280462;28;20438;-64
2021/09/06 20:25:46;;;;;;;5.63;2.55;;;;;;;;;;10280659;28;20048;-63
2021/09/06 20:30:44;;;;;;;12.95;4.88;;;;;;;;;;10281041;28;20052;-64
2021/09/06 20:35:43;;;;;;;4.97;2.50;;;;;;;;;;10279867;28;20033;-64
2021/09/06 20:40:41;;;;;;;8.35;2.45;;;;;;;;;;10280018;28;20077;-64
2021/09/06 20:45:42;;;;;;;5.45;2.78;;;;;;;;;;10279770;28;20075;-64
2021/09/06 20:50:41;;;;;;;4.90;2.38;;;;;;;;;;10279843;28;20045;-64
2021/09/06 20:55:39;;;;;;;3.28;2.47;;;;;;;;;;10279440;28;20049;-64
2021/09/06 21:00:37;;;;;;;8.63;2.67;;;;;;;;;;10279197;28;20087;-64
2021/09/06 21:05:37;;;;;;;6.57;2.53;;;;;;;;;;10278752;28;20037;-63
2021/09/06 21:10:36;;;;;;;7.40;2.92;;;;;;;;;;10278956;28;20041;-64
2021/09/06 21:15:34;;;;;;;6.57;4.07;;;;;;;;;;10278368;28;20068;-64
2021/09/06 21:20:32;;;;;;;5.18;2.90;;;;;;;;;;10278123;28;20481;-64
2021/09/06 21:25:32;;;;;;;3.38;2.25;;;;;;;;;;10278129;28;20072;-64
2021/09/06 21:30:31;;;;;;;6.07;2.17;;;;;;;;;;10278546;28;20045;-64
2021/09/06 21:35:29;;;;;;;4.97;2.50;;;;;;;;;;10278219;28;20044;-64
2021/09/06 21:40:27;;;;;;;4.15;2.65;;;;;;;;;;10277556;28;20073;-65
2021/09/06 21:45:27;;;;;;;10.88;2.83;;;;;;;;;;10277508;28;20552;-65
2021/09/06 21:50:25;;;;;;;3.40;2.20;;;;;;;;;;10277245;28;20049;-64
2021/09/06 21:55:24;;;;;;;4.32;2.60;;;;;;;;;;10277456;28;20045;-65
2021/09/06 22:00:22;;;;;;;6.13;2.28;;;;;;;;;;10275758;28;20076;-65
2021/09/06 22:05:22;;;;;;;4.10;2.53;;;;;;;;;;10276532;28;20048;-65
2021/09/06 22:10:20;;;;;;;4.53;2.25;;;;;;;;;;10277433;28;20044;-64
2021/09/06 22:15:18;;;;;;;6.95;2.58;;;;;;;;;;10277320;28;20084;-64
2021/09/06 22:20:17;;;;;;;4.38;2.13;;;;;;;;;;10277089;28;20077;-64
2021/09/06 22:25:17;;;;;;;3.78;2.22;;;;;;;;;;10276590;28;20048;-64
2021/09/06 22:30:17;;;;;;;5.03;2.08;;;;;;;;;;10277166;28;20037;-64
2021/09/06 22:35:16;;;;;;;3.30;1.90;;;;;;;;;;10276908;28;20083;-64
2021/09/06 22:40:15;;;;;;;3.38;2.03;;;;;;;;;;10276674;28;20069;-64
2021/09/06 22:45:14;;;;;;;5.47;2.25;;;;;;;;;;10276735;28;20073;-64
2021/09/06 22:50:13;;;;;;;3.85;2.30;;;;;;;;;;10276439;28;20052;-64
2021/09/06 22:55:11;;;;;;;4.22;2.60;;;;;;;;;;10275364;28;20533;-64
2021/09/06 23:00:10;;;;;;;4.47;2.78;;;;;;;;;;10276253;28;20095;-65
2021/09/06 23:05:11;;;;;;;4.13;2.38;;;;;;;;;;10275540;28;20426;-64
2021/09/06 23:10:11;;;;;;;3.20;1.77;;;;;;;;;;10276046;28;20073;-64
2021/09/06 23:15:10;;;;;;;4.95;2.42;;;;;;;;;;10279020;28;20431;-63
2021/09/06 23:20:09;;;;;;;2.55;2.15;;;;;;;;;;10283932;28;20088;-64
2021/09/06 23:25:09;;;;;;;6.45;2.20;;;;;;;;;;10283883;28;20056;-64
2021/09/06 23:30:08;;;;;;;4.57;2.10;;;;;;;;;;10283748;28;20055;-64
2021/09/06 23:35:07;;;;;;;5.05;2.45;;;;;;;;;;10283647;28;20048;-64
2021/09/06 23:40:07;;;;;;;5.97;2.05;;;;;;;;;;10283141;28;20103;-64
2021/09/06 23:45:07;;;;;;;5.57;2.00;;;;;;;;;;10283124;28;20068;-64
2021/09/06 23:50:06;;;;;;;4.97;2.10;;;;;;;;;;10283031;28;20513;-64
2021/09/06 23:55:05;;;;;;;3.72;2.47;;;;;;;;;;10282855;28;20041;-63
